Portada
METAR-TAF:

METAR-TAF

Aeroports :

Kununurra, Austràlia

latitud: 15-46S, longitud: 128-42E, altitud: 44 m

Observació

L'informe es va fer fa 23 minuts, a les 22:30 UTC
Vent 5 kt del Nord/Nord-Est
Temperatura 29°C
Humitat 84%
Pressió 1007 hPa
Visibilitat 10 km o més

METAR: YPKU 112230Z AUTO 02005KT 9999 // NCD 29/26 Q1007 RF00.0/000.0

Hora: 06:53 (22:53 UTC)

Pronòstic

L'informe es va fer fa 4 hores i 41 minuts, a les 18:12 UTC
Pronòstic vàlid del 11 a les 20 UTC al 12 a les 08 UTC
Vent 10 kt del Nord
Visibilitat 10 km o més
sense núvols per sota de 1500 mi sense presència de cumulonimbus.
Probabilitat 30% :
Temporalment
l' 12 a les 04 UTC al 12 a les 08 UTC
Vent 20 kt amb direcció variable amb ràfegues de 45 kt
Visibilitat: 3000 m
Núvols disperses a una alçada de 2000 ft
Núvols disperses a una alçada de 10000 ft, Cumulonimbus.
tempesta, pluja

TAF: YPKU 111812Z 1120/1208 35010KT CAVOK PROB30 TEMPO 1204/1208 VRB20G45KT 3000 TSRA SCT020 SCT100CB

Observacions i pronòstics meteorològics de més de 4000 aeroports (METAR i TAF).

Les estacions disponibles són els punts grocs i vermells al mapa.

Posi el ratolí al punt desitjat per veure el nom de l'estació.

Feu clic per veure les observacions i els pronòstics meteorològics.

Per canviar el mapa: feu clic els botons verds amb una creu de color negre per apropar; al botó verd amb un guió per allunyar la imatge; o en les fletxes verdes per a mapes adjacents.


METAR-TAF: